Details for FedEx at RKSI




Go Back


Latest METAR
Local Time

RKSI 221130Z 33005KT CAVOK 21/08 Q1016 NOSIG
22/09/2018, 20:43:59

Description
Results
FedEx Logo
Number of Pilots based at RKSI
0 Pilots Based here
Number of FedEx Flights Departed from RKSI
0 Flights Departed
Number of FedEx Flights Arrived at RKSI
0 Flights Arrived
Number of FedEx Schedules Departing from RKSI
28 Schedules
Number of FedEx Schedules Arriving at RKSI
26 Schedules
Number of FedEx Schedules Departing from RKSI availible today
4 Schedules Today
Number of FedEx Schedules Arriving at RKSI availible today
4 Schedules Today
Average Landing Rate at RKSI
-325 fpm
FedEx Average Landing Rate at RKSI
0 fpm
Total Fuel Purchased at RKSI by FedEx
0.00 kgs / 0.00 lbs

Pilots Based at RKSI


Pilot ID
Pilot Name
Pilot Rank
No. of Flights
No. of Flying Hours
There are no pilots assigned to this hub!   Will you be the first?
Content